createdAt,value
2018-07-24T00:00:15.849Z,19.80
2018-07-24T00:01:15.761Z,19.77
2018-07-24T00:02:15.685Z,19.76
2018-07-24T00:03:15.611Z,19.77
2018-07-24T00:04:15.538Z,19.69
2018-07-24T00:05:15.451Z,19.73
2018-07-24T00:06:15.376Z,19.78
2018-07-24T00:07:15.301Z,19.71
2018-07-24T00:08:15.228Z,19.77
2018-07-24T00:09:15.141Z,19.68
2018-07-24T00:10:15.063Z,19.66
2018-07-24T00:11:14.989Z,19.63
2018-07-24T00:12:14.912Z,19.55
2018-07-24T00:13:14.850Z,19.55
2018-07-24T00:14:14.749Z,19.56
2018-07-24T00:15:14.675Z,19.55
2018-07-24T00:16:14.603Z,19.55
2018-07-24T00:17:14.528Z,19.59
2018-07-24T00:18:14.441Z,19.50
2018-07-24T00:19:14.364Z,19.46
2018-07-24T00:20:14.287Z,19.50
2018-07-24T00:21:14.213Z,19.41
2018-07-24T00:22:14.126Z,19.46
2018-07-24T00:23:14.052Z,19.47
2018-07-24T00:24:13.977Z,19.46
2018-07-24T00:25:13.901Z,19.31
2018-07-24T00:26:13.814Z,19.33
2018-07-24T00:27:13.750Z,19.40
2018-07-24T00:28:13.665Z,19.31
2018-07-24T00:29:13.591Z,19.28
2018-07-24T00:30:13.515Z,19.31
2018-07-24T00:31:13.430Z,19.25
2018-07-24T00:32:13.406Z,19.31
2018-07-24T00:33:13.276Z,19.28
2018-07-24T00:34:13.202Z,19.22
2018-07-24T00:35:13.114Z,19.26
2018-07-24T00:36:13.053Z,19.13
2018-07-24T00:37:12.966Z,19.18
2018-07-24T00:38:12.892Z,19.11
2018-07-24T00:39:12.805Z,19.08
2018-07-24T00:40:12.728Z,19.11
2018-07-24T00:41:12.652Z,19.16
2018-07-24T00:42:12.578Z,19.19
2018-07-24T00:43:12.489Z,19.10
2018-07-24T00:44:12.417Z,19.13
2018-07-24T00:45:12.342Z,19.04
2018-07-24T00:46:12.267Z,19.00
2018-07-24T00:47:12.181Z,19.02
2018-07-24T00:48:12.103Z,18.99
2018-07-24T00:49:12.028Z,18.90
2018-07-24T00:50:11.942Z,18.91
2018-07-24T00:51:11.878Z,18.95
2018-07-24T00:52:11.793Z,18.99
2018-07-24T00:53:11.717Z,18.87
2018-07-24T00:54:11.658Z,18.87
2018-07-24T00:55:11.560Z,18.85
2018-07-24T00:56:11.482Z,18.98
2018-07-24T00:57:11.406Z,18.98
2018-07-24T00:58:11.318Z,18.88
2018-07-24T00:59:11.243Z,18.82
2018-07-24T01:00:11.166Z,18.85
2018-07-24T01:01:11.091Z,18.84
2018-07-24T01:02:11.005Z,18.88
2018-07-24T01:03:10.930Z,18.85
2018-07-24T01:04:10.858Z,18.78
2018-07-24T01:05:10.783Z,18.85
2018-07-24T01:06:10.693Z,18.84
2018-07-24T01:07:10.620Z,18.76
2018-07-24T01:08:10.543Z,18.87
2018-07-24T01:09:10.467Z,18.78
2018-07-24T01:10:10.380Z,18.73
2018-07-24T01:11:10.307Z,18.81
2018-07-24T01:12:10.232Z,18.76
2018-07-24T01:13:10.144Z,18.78
2018-07-24T01:14:10.068Z,18.73
2018-07-24T01:15:09.993Z,18.69
2018-07-24T01:16:09.933Z,18.78
2018-07-24T01:17:09.834Z,18.70
2018-07-24T01:18:09.758Z,18.67
2018-07-24T01:19:09.935Z,18.67
2018-07-24T01:20:09.608Z,18.66
2018-07-24T01:21:09.520Z,18.69
2018-07-24T01:22:09.444Z,18.70
2018-07-24T01:23:09.369Z,18.69
2018-07-24T01:24:09.285Z,18.70
2018-07-24T01:25:09.209Z,18.65
2018-07-24T01:26:09.134Z,18.60
2018-07-24T01:27:09.062Z,18.54
2018-07-24T01:28:08.972Z,18.55
2018-07-24T01:29:08.896Z,18.54
2018-07-24T01:30:08.835Z,18.48
2018-07-24T01:31:08.735Z,18.47
2018-07-24T01:32:08.661Z,18.48
2018-07-24T01:33:08.585Z,18.54
2018-07-24T01:34:08.508Z,18.50
2018-07-24T01:35:08.433Z,18.48
2018-07-24T01:36:08.348Z,18.48
2018-07-24T01:37:08.272Z,18.48
2018-07-24T01:38:08.186Z,18.44
2018-07-24T01:39:08.111Z,18.44
2018-07-24T01:40:08.034Z,18.36
2018-07-24T01:41:07.966Z,18.41
2018-07-24T01:42:07.871Z,18.36
2018-07-24T01:43:07.796Z,18.32
2018-07-24T01:44:07.734Z,18.33
2018-07-24T01:45:07.650Z,18.27
2018-07-24T01:46:07.565Z,18.29
2018-07-24T01:47:07.485Z,18.32
2018-07-24T01:48:07.413Z,18.39
2018-07-24T01:49:07.336Z,18.32
2018-07-24T01:50:07.249Z,18.29
2018-07-24T01:51:07.173Z,18.29
2018-07-24T01:52:07.085Z,18.26
2018-07-24T01:53:07.010Z,18.27
2018-07-24T01:54:06.935Z,18.20
2018-07-24T01:55:06.849Z,18.29
2018-07-24T01:56:06.774Z,18.17
2018-07-24T01:57:06.699Z,18.18
2018-07-24T01:58:06.624Z,18.11
2018-07-24T01:59:06.538Z,18.21
2018-07-24T02:00:06.463Z,18.23
2018-07-24T02:01:06.389Z,18.26
2018-07-24T02:02:06.301Z,18.21
2018-07-24T02:03:06.224Z,18.27
2018-07-24T02:04:06.147Z,18.20
2018-07-24T02:05:06.072Z,18.25
2018-07-24T02:06:05.987Z,18.26
2018-07-24T02:07:05.913Z,18.27
2018-07-24T02:08:05.839Z,18.17
2018-07-24T02:09:05.753Z,18.21
2018-07-24T02:10:05.680Z,18.14
2018-07-24T02:11:05.601Z,18.11
2018-07-24T02:12:05.529Z,18.20
2018-07-24T02:13:05.443Z,18.15
2018-07-24T02:14:05.362Z,18.12
2018-07-24T02:15:05.288Z,18.12
2018-07-24T02:16:05.199Z,18.15
2018-07-24T02:17:05.126Z,18.15
2018-07-24T02:18:05.089Z,18.11
2018-07-24T02:19:04.963Z,18.20
2018-07-24T02:20:04.892Z,18.07
2018-07-24T02:21:04.816Z,18.07
2018-07-24T02:22:04.728Z,18.14
2018-07-24T02:23:04.653Z,18.12
2018-07-24T02:24:04.677Z,18.17
2018-07-24T02:25:04.501Z,18.14
2018-07-24T02:26:04.414Z,18.14
2018-07-24T02:27:04.340Z,18.05
2018-07-24T02:28:04.266Z,18.15
2018-07-24T02:29:04.179Z,18.07
2018-07-24T02:30:04.104Z,18.05
2018-07-24T02:31:04.029Z,18.02
2018-07-24T02:32:03.953Z,18.03
2018-07-24T02:33:03.871Z,18.00
2018-07-24T02:34:03.794Z,18.00
2018-07-24T02:35:03.706Z,17.95
2018-07-24T02:36:03.626Z,17.96
2018-07-24T02:37:03.555Z,17.93
2018-07-24T02:38:03.491Z,17.96
2018-07-24T02:39:03.391Z,18.00
2018-07-24T02:40:03.318Z,17.97
2018-07-24T02:41:03.247Z,17.99
2018-07-24T02:42:03.155Z,17.97
2018-07-24T02:43:03.092Z,17.95
2018-07-24T02:44:03.003Z,17.97
2018-07-24T02:45:02.917Z,17.97
2018-07-24T02:46:02.841Z,18.00
2018-07-24T02:47:02.766Z,17.96
2018-07-24T02:48:02.695Z,17.92
2018-07-24T02:49:02.856Z,17.95
2018-07-24T02:50:02.532Z,17.92
2018-07-24T02:51:02.456Z,17.97
2018-07-24T02:52:02.367Z,17.92
2018-07-24T02:53:02.293Z,17.95
2018-07-24T02:54:02.206Z,17.93
2018-07-24T02:55:02.132Z,17.95
2018-07-24T02:56:02.065Z,17.93
2018-07-24T02:57:01.995Z,17.99
2018-07-24T02:58:01.895Z,17.95
2018-07-24T02:59:01.822Z,17.96
2018-07-24T03:00:01.745Z,17.93
2018-07-24T03:01:01.656Z,17.93
2018-07-24T03:02:01.582Z,17.92
2018-07-24T03:03:01.506Z,17.92
2018-07-24T03:04:01.419Z,17.95
2018-07-24T03:05:01.344Z,17.86
2018-07-24T03:06:01.269Z,17.92
2018-07-24T03:07:01.182Z,17.95
2018-07-24T03:08:01.110Z,17.93
2018-07-24T03:09:01.296Z,17.89
2018-07-24T03:10:00.950Z,17.82
2018-07-24T03:11:00.876Z,17.81
2018-07-24T03:12:00.794Z,17.84
2018-07-24T03:13:00.720Z,17.82
2018-07-24T03:14:00.632Z,17.86
2018-07-24T03:15:00.556Z,17.82
2018-07-24T03:16:00.483Z,17.87
2018-07-24T03:17:00.399Z,17.86
2018-07-24T03:18:00.321Z,17.81
2018-07-24T03:19:00.247Z,17.87
2018-07-24T03:20:00.160Z,17.89
2018-07-24T03:21:00.089Z,17.87
2018-07-24T03:22:00.010Z,17.84
2018-07-24T03:22:59.923Z,17.92
2018-07-24T03:23:59.945Z,17.84
2018-07-24T03:24:59.773Z,17.84
2018-07-24T03:25:59.682Z,17.86
2018-07-24T03:26:59.607Z,17.79
2018-07-24T03:27:59.536Z,17.86
2018-07-24T03:28:59.447Z,17.87
2018-07-24T03:29:59.373Z,17.87
2018-07-24T03:30:59.298Z,17.82
2018-07-24T03:31:59.210Z,17.87
2018-07-24T03:32:59.132Z,17.89
2018-07-24T03:33:59.071Z,17.82
2018-07-24T03:34:58.971Z,17.82
2018-07-24T03:35:58.897Z,17.84
2018-07-24T03:36:58.821Z,17.89
2018-07-24T03:37:58.733Z,17.89
2018-07-24T03:38:58.658Z,17.87
2018-07-24T03:39:58.586Z,17.84
2018-07-24T03:40:58.499Z,17.86
2018-07-24T03:41:58.424Z,17.81
2018-07-24T03:42:58.349Z,17.87
2018-07-24T03:43:58.263Z,17.93
2018-07-24T03:44:58.231Z,17.90
2018-07-24T03:45:58.124Z,17.89
2018-07-24T03:46:58.023Z,17.97
2018-07-24T03:47:57.956Z,18.00
2018-07-24T03:48:57.874Z,17.95
2018-07-24T03:49:57.786Z,17.93
2018-07-24T03:50:57.725Z,17.89
2018-07-24T03:51:57.638Z,17.99
2018-07-24T03:52:57.555Z,17.90
2018-07-24T03:53:57.475Z,17.89
2018-07-24T03:54:57.400Z,17.92
2018-07-24T03:55:57.324Z,17.89
2018-07-24T03:56:57.235Z,17.93
2018-07-24T03:57:57.191Z,17.99
2018-07-24T03:58:57.074Z,17.95
2018-07-24T03:59:57.001Z,18.02
2018-07-24T04:00:56.926Z,18.05
2018-07-24T04:01:56.844Z,17.97
2018-07-24T04:02:56.768Z,17.97
2018-07-24T04:03:56.688Z,17.99
2018-07-24T04:04:56.625Z,18.00
2018-07-24T04:05:56.525Z,18.07
2018-07-24T04:06:56.455Z,18.07
2018-07-24T04:07:56.376Z,18.08
2018-07-24T04:08:56.286Z,18.07
2018-07-24T04:09:56.216Z,18.21
2018-07-24T04:10:56.137Z,18.14
2018-07-24T04:11:56.053Z,18.17
2018-07-24T04:12:55.984Z,18.18
2018-07-24T04:13:55.907Z,18.25
2018-07-24T04:14:55.814Z,18.08
2018-07-24T04:15:55.738Z,18.23
2018-07-24T04:16:55.663Z,18.18
2018-07-24T04:17:55.576Z,18.26
2018-07-24T04:18:55.502Z,18.26
2018-07-24T04:19:55.428Z,18.27
2018-07-24T04:20:55.341Z,18.30
2018-07-24T04:21:55.265Z,18.33
2018-07-24T04:22:55.191Z,18.39
2018-07-24T04:23:55.116Z,18.37
2018-07-24T04:24:55.031Z,18.47
2018-07-24T04:25:54.956Z,18.48
2018-07-24T04:26:54.880Z,18.55
2018-07-24T04:27:54.789Z,18.62
2018-07-24T04:28:54.727Z,18.62
2018-07-24T04:29:54.639Z,18.62
2018-07-24T04:30:54.580Z,18.66
2018-07-24T04:31:54.480Z,18.67
2018-07-24T04:32:54.405Z,18.63
2018-07-24T04:33:54.319Z,18.75
2018-07-24T04:34:54.245Z,18.76
2018-07-24T04:35:54.165Z,18.87
2018-07-24T04:36:54.090Z,18.95
2018-07-24T04:37:54.003Z,19.04
2018-07-24T04:38:53.929Z,19.16
2018-07-24T04:39:53.914Z,19.40
2018-07-24T04:40:53.779Z,19.80
2018-07-24T04:41:53.690Z,20.01
2018-07-24T04:42:53.615Z,20.14
2018-07-24T04:43:53.544Z,20.43
2018-07-24T04:44:53.456Z,20.62
2018-07-24T04:45:53.382Z,20.97
2018-07-24T04:46:53.307Z,21.31
2018-07-24T04:47:53.229Z,21.54
2018-07-24T04:48:53.143Z,21.79
2018-07-24T04:49:53.066Z,21.92
2018-07-24T04:50:52.991Z,21.92
2018-07-24T04:51:52.920Z,22.00
2018-07-24T04:52:52.832Z,22.15
2018-07-24T04:53:52.757Z,22.31
2018-07-24T04:54:52.737Z,22.46
2018-07-24T04:55:52.605Z,22.68
2018-07-24T04:56:52.530Z,22.67
2018-07-24T04:57:52.455Z,22.72
2018-07-24T04:58:52.367Z,22.86
2018-07-24T04:59:52.295Z,22.85
2018-07-24T05:00:52.222Z,22.82
2018-07-24T05:01:52.157Z,22.76
2018-07-24T05:02:52.073Z,22.68
2018-07-24T05:03:51.982Z,22.64
2018-07-24T05:04:51.918Z,22.57
2018-07-24T05:05:51.836Z,22.54
2018-07-24T05:06:51.756Z,22.49
2018-07-24T05:07:51.684Z,22.51
2018-07-24T05:08:51.610Z,22.49
2018-07-24T05:09:51.528Z,22.42
2018-07-24T05:10:51.459Z,22.46
2018-07-24T05:11:51.371Z,22.40
2018-07-24T05:12:51.297Z,22.35
2018-07-24T05:13:51.221Z,22.36
2018-07-24T05:14:51.145Z,22.31
2018-07-24T05:15:51.069Z,22.33
2018-07-24T05:16:51.062Z,22.25
2018-07-24T05:17:50.908Z,22.12
2018-07-24T05:18:50.832Z,22.21
2018-07-24T05:19:50.760Z,22.21
2018-07-24T05:20:50.684Z,22.12
2018-07-24T05:21:50.610Z,22.12
2018-07-24T05:22:50.537Z,22.17
2018-07-24T05:23:50.458Z,22.09
2018-07-24T05:24:50.382Z,22.06
2018-07-24T05:25:50.311Z,21.96
2018-07-24T05:26:50.222Z,21.98
2018-07-24T05:27:50.145Z,21.96
2018-07-24T05:28:50.071Z,22.05
2018-07-24T05:29:49.995Z,22.03
2018-07-24T05:30:49.922Z,22.02
2018-07-24T05:31:49.848Z,22.05
2018-07-24T05:32:49.761Z,22.03
2018-07-24T05:33:49.688Z,21.94
2018-07-24T05:34:49.612Z,21.99
2018-07-24T05:35:49.534Z,22.00
2018-07-24T05:36:49.463Z,22.14
2018-07-24T05:37:49.384Z,22.05
2018-07-24T05:38:49.339Z,22.06
2018-07-24T05:39:49.237Z,22.12
2018-07-24T05:40:49.150Z,22.15
2018-07-24T05:41:49.074Z,22.20
2018-07-24T05:42:48.999Z,22.15
2018-07-24T05:43:48.924Z,22.18
2018-07-24T05:44:48.873Z,22.24
2018-07-24T05:45:48.774Z,22.24
2018-07-24T05:46:48.699Z,22.30
2018-07-24T05:47:48.622Z,22.31
2018-07-24T05:48:48.586Z,22.35
2018-07-24T05:49:48.463Z,22.36
2018-07-24T05:50:48.389Z,22.39
2018-07-24T05:51:48.313Z,22.43
2018-07-24T05:52:48.238Z,22.60
2018-07-24T05:53:48.163Z,22.60
2018-07-24T05:54:48.088Z,22.62
2018-07-24T05:55:48.015Z,22.57
2018-07-24T05:56:47.938Z,22.67
2018-07-24T05:57:47.850Z,22.70
2018-07-24T05:58:47.786Z,22.68
2018-07-24T05:59:47.714Z,22.68
2018-07-24T06:00:47.626Z,22.75
2018-07-24T06:01:47.580Z,22.70
2018-07-24T06:02:47.476Z,22.88
2018-07-24T06:03:47.401Z,22.85
2018-07-24T06:04:47.328Z,22.90
2018-07-24T06:05:47.250Z,22.90
2018-07-24T06:06:47.174Z,22.92
2018-07-24T06:07:47.090Z,22.90
2018-07-24T06:08:47.016Z,22.88
2018-07-24T06:09:46.945Z,22.98
2018-07-24T06:10:46.869Z,23.05
2018-07-24T06:11:46.788Z,23.07
2018-07-24T06:12:46.713Z,23.19
2018-07-24T06:13:46.640Z,23.17
2018-07-24T06:14:46.567Z,23.19
2018-07-24T06:15:46.489Z,23.20
2018-07-24T06:16:46.448Z,23.17
2018-07-24T06:17:46.339Z,23.28
2018-07-24T06:18:46.253Z,23.32
2018-07-24T06:19:46.179Z,23.36
2018-07-24T06:20:46.105Z,23.32
2018-07-24T06:21:46.044Z,23.25
2018-07-24T06:22:45.953Z,23.40
2018-07-24T06:23:45.877Z,23.36
2018-07-24T06:24:45.801Z,23.39
2018-07-24T06:25:45.726Z,23.40
2018-07-24T06:26:45.653Z,23.47
2018-07-24T06:27:45.579Z,23.54
2018-07-24T06:28:45.519Z,23.61
2018-07-24T06:29:45.441Z,23.58
2018-07-24T06:30:45.343Z,23.60
2018-07-24T06:31:45.267Z,23.60
2018-07-24T06:32:45.194Z,23.60
2018-07-24T06:33:45.117Z,23.60
2018-07-24T06:34:45.043Z,23.66
2018-07-24T06:35:44.966Z,23.75
2018-07-24T06:36:44.902Z,23.79
2018-07-24T06:37:44.816Z,23.70
2018-07-24T06:38:44.741Z,23.73
2018-07-24T06:39:44.673Z,23.84
2018-07-24T06:40:44.594Z,23.85
2018-07-24T06:41:44.518Z,23.87
2018-07-24T06:42:44.443Z,23.88
2018-07-24T06:43:44.367Z,23.94
2018-07-24T06:44:44.291Z,24.09
2018-07-24T06:45:44.216Z,24.10
2018-07-24T06:46:44.130Z,24.21
2018-07-24T06:47:44.055Z,24.27
2018-07-24T06:48:43.980Z,24.21
2018-07-24T06:49:43.903Z,24.34
2018-07-24T06:50:43.831Z,24.34
2018-07-24T06:51:43.856Z,24.47
2018-07-24T06:52:43.694Z,24.50
2018-07-24T06:53:43.606Z,24.53
2018-07-24T06:54:43.531Z,24.64
2018-07-24T06:55:43.453Z,24.53
2018-07-24T06:56:43.443Z,24.67
2018-07-24T06:57:43.304Z,24.62
2018-07-24T06:58:43.229Z,24.57
2018-07-24T06:59:43.156Z,24.64
2018-07-24T07:00:43.081Z,24.57
2018-07-24T07:01:43.007Z,24.62
2018-07-24T07:02:42.932Z,24.76
2018-07-24T07:03:42.854Z,24.76
2018-07-24T07:04:42.780Z,24.77
2018-07-24T07:05:42.707Z,24.83
2018-07-24T07:06:42.630Z,24.88
2018-07-24T07:07:42.637Z,24.80
2018-07-24T07:08:42.484Z,24.93
2018-07-24T07:09:42.421Z,24.78
2018-07-24T07:10:42.333Z,24.81
2018-07-24T07:11:42.255Z,24.93
2018-07-24T07:12:42.181Z,24.93
2018-07-24T07:13:42.120Z,25.06
2018-07-24T07:14:42.031Z,25.09
2018-07-24T07:15:41.959Z,25.25
2018-07-24T07:16:41.883Z,25.25
2018-07-24T07:17:41.822Z,25.28
2018-07-24T07:18:41.734Z,25.27
2018-07-24T07:19:41.659Z,25.23
2018-07-24T07:20:41.584Z,25.28
2018-07-24T07:21:41.522Z,25.32
2018-07-24T07:22:41.434Z,25.40
2018-07-24T07:23:41.357Z,25.36
2018-07-24T07:24:41.283Z,25.47
2018-07-24T07:25:41.221Z,25.60
2018-07-24T07:26:41.133Z,25.91
2018-07-24T07:27:41.072Z,26.09
2018-07-24T07:28:40.998Z,26.23
2018-07-24T07:29:40.923Z,26.37
2018-07-24T07:30:40.851Z,26.43
2018-07-24T07:31:40.771Z,26.58
2018-07-24T07:32:40.731Z,26.65
2018-07-24T07:33:40.622Z,26.85
2018-07-24T07:34:40.549Z,27.03
2018-07-24T07:35:40.472Z,27.46
2018-07-24T07:36:40.396Z,27.92
2018-07-24T07:37:40.323Z,28.31
2018-07-24T07:38:40.264Z,28.37
2018-07-24T07:39:40.188Z,28.36
2018-07-24T07:40:40.111Z,28.78
2018-07-24T07:41:40.036Z,29.16
2018-07-24T07:42:39.974Z,29.34
2018-07-24T07:43:39.904Z,29.76
2018-07-24T07:44:39.824Z,29.57
2018-07-24T07:45:39.749Z,29.27
2018-07-24T07:46:39.684Z,29.46
2018-07-24T07:47:39.626Z,29.97
2018-07-24T07:48:39.538Z,28.90
2018-07-24T07:49:39.475Z,29.24
2018-07-24T07:50:39.399Z,29.97
2018-07-24T07:51:39.339Z,30.38
2018-07-24T07:52:39.262Z,29.92
2018-07-24T07:53:39.200Z,29.65
2018-07-24T07:54:39.127Z,28.98
2018-07-24T07:55:39.060Z,28.90
2018-07-24T07:56:38.986Z,29.16
2018-07-24T07:57:38.911Z,29.76
2018-07-24T07:58:38.867Z,30.05
2018-07-24T07:59:38.787Z,30.51
2018-07-24T08:00:38.716Z,30.69
2018-07-24T08:01:38.655Z,31.01
2018-07-24T08:02:38.577Z,31.21
2018-07-24T08:03:38.511Z,31.69
2018-07-24T08:04:38.436Z,32.06
2018-07-24T08:05:38.375Z,32.38
2018-07-24T08:06:38.311Z,32.37
2018-07-24T08:07:38.237Z,32.60
2018-07-24T08:08:38.175Z,32.65
2018-07-24T08:09:38.107Z,32.77
2018-07-24T08:10:38.037Z,31.92
2018-07-24T08:11:37.979Z,32.19
2018-07-24T08:12:37.910Z,31.47
2018-07-24T08:13:37.839Z,31.58
2018-07-24T08:14:37.779Z,32.01
2018-07-24T08:15:37.701Z,31.93
2018-07-24T08:16:37.638Z,32.19
2018-07-24T08:17:37.577Z,30.73
2018-07-24T08:18:37.504Z,30.64
2018-07-24T08:19:37.440Z,30.95
2018-07-24T08:20:37.379Z,31.61
2018-07-24T08:21:37.303Z,32.14
2018-07-24T08:22:37.240Z,32.50
2018-07-24T08:23:37.180Z,32.89
2018-07-24T08:24:37.112Z,32.01
2018-07-24T08:25:37.041Z,31.31
2018-07-24T08:26:36.979Z,31.35
2018-07-24T08:27:36.914Z,31.50
2018-07-24T08:28:36.854Z,31.85
2018-07-24T08:29:36.777Z,32.38
2018-07-24T08:30:36.720Z,32.47
2018-07-24T08:31:36.643Z,32.81
2018-07-24T08:32:36.580Z,33.37
2018-07-24T08:33:36.558Z,33.63
2018-07-24T08:34:36.455Z,33.90
2018-07-24T08:35:36.380Z,33.87
2018-07-24T08:36:36.315Z,33.12
2018-07-24T08:37:36.254Z,33.23
2018-07-24T08:38:36.191Z,33.38
2018-07-24T08:39:36.130Z,32.19
2018-07-24T08:40:36.054Z,32.41
2018-07-24T08:41:35.991Z,32.89
2018-07-24T08:42:35.929Z,32.75
2018-07-24T08:43:35.868Z,32.07
2018-07-24T08:44:35.831Z,30.32
2018-07-24T08:45:35.735Z,30.60
2018-07-24T08:46:35.671Z,30.79
2018-07-24T08:47:35.606Z,31.13
2018-07-24T08:48:35.545Z,31.58
2018-07-24T08:49:35.479Z,31.48
2018-07-24T08:50:35.408Z,31.41
2018-07-24T08:51:35.344Z,31.47
2018-07-24T08:52:35.315Z,30.95
2018-07-24T08:53:35.446Z,30.69
2018-07-24T08:54:35.242Z,30.77
2018-07-24T08:55:35.450Z,31.09
2018-07-24T08:56:35.022Z,31.29
2018-07-24T08:57:35.005Z,31.69
2018-07-24T08:58:34.894Z,32.13
2018-07-24T08:59:34.818Z,32.67
2018-07-24T09:00:34.813Z,32.29
2018-07-24T09:01:34.706Z,31.63
2018-07-24T09:02:34.632Z,31.20
2018-07-24T09:03:34.652Z,31.48
2018-07-24T09:04:34.509Z,32.18
2018-07-24T09:05:34.434Z,32.59
2018-07-24T09:06:34.371Z,33.18
2018-07-24T09:07:34.307Z,33.12
2018-07-24T09:08:34.246Z,33.61
2018-07-24T09:09:34.170Z,33.88
2018-07-24T09:10:34.107Z,33.78
2018-07-24T09:11:34.047Z,31.93
2018-07-24T09:12:33.985Z,31.41
2018-07-24T09:13:33.922Z,32.08
2018-07-24T09:14:33.860Z,32.10
2018-07-24T09:15:33.837Z,32.04
2018-07-24T09:16:33.721Z,32.19
2018-07-24T09:17:33.662Z,32.45
2018-07-24T09:18:33.596Z,33.15
2018-07-24T09:19:33.535Z,33.69
2018-07-24T09:20:33.472Z,33.81
2018-07-24T09:21:33.410Z,34.08
2018-07-24T09:22:33.347Z,33.93
2018-07-24T09:23:33.273Z,34.30
2018-07-24T09:24:33.212Z,34.78
2018-07-24T09:25:33.148Z,34.03
2018-07-24T09:26:33.084Z,33.86
2018-07-24T09:27:33.024Z,32.99
2018-07-24T09:28:32.959Z,32.89
2018-07-24T09:29:32.896Z,33.09
2018-07-24T09:30:32.836Z,32.13
2018-07-24T09:31:32.773Z,32.79
2018-07-24T09:32:32.712Z,33.29
2018-07-24T09:33:32.667Z,32.56
2018-07-24T09:34:32.575Z,31.76
2018-07-24T09:35:32.510Z,31.78
2018-07-24T09:36:32.448Z,31.01
2018-07-24T09:37:32.386Z,31.85
2018-07-24T09:38:32.321Z,31.66
2018-07-24T09:39:32.262Z,31.09
2018-07-24T09:40:32.258Z,31.01
2018-07-24T09:41:32.138Z,31.10
2018-07-24T09:42:32.074Z,30.75
2018-07-24T09:43:32.000Z,30.10
2018-07-24T09:44:31.938Z,30.01
2018-07-24T09:45:31.874Z,29.71
2018-07-24T09:46:31.813Z,29.82
2018-07-24T09:47:31.748Z,29.73
2018-07-24T09:48:31.686Z,29.82
2018-07-24T09:49:31.611Z,29.42
2018-07-24T09:50:31.583Z,28.93
2018-07-24T09:51:31.488Z,29.06
2018-07-24T09:52:31.425Z,29.02
2018-07-24T09:53:31.351Z,28.98
2018-07-24T09:54:31.289Z,28.83
2018-07-24T09:55:31.225Z,28.71
2018-07-24T09:56:31.204Z,28.68
2018-07-24T09:57:31.087Z,28.70
2018-07-24T09:58:31.024Z,28.37
2018-07-24T09:59:30.949Z,28.00
2018-07-24T10:00:30.888Z,28.06
2018-07-24T10:01:30.825Z,28.46
2018-07-24T10:02:30.750Z,29.00
2018-07-24T10:03:30.690Z,29.21
2018-07-24T10:04:30.615Z,29.30
2018-07-24T10:05:30.572Z,29.26
2018-07-24T10:06:30.479Z,29.27
2018-07-24T10:07:30.413Z,29.52
2018-07-24T10:08:30.352Z,29.70
2018-07-24T10:09:30.275Z,29.68
2018-07-24T10:10:30.213Z,29.42
2018-07-24T10:11:30.140Z,29.21
2018-07-24T10:12:30.079Z,29.11
2018-07-24T10:13:30.004Z,29.15
2018-07-24T10:14:29.941Z,29.48
2018-07-24T10:15:29.877Z,29.79
2018-07-24T10:16:29.830Z,29.98
2018-07-24T10:17:29.729Z,30.07
2018-07-24T10:18:29.667Z,29.74
2018-07-24T10:19:29.601Z,29.95
2018-07-24T10:20:29.526Z,30.34
2018-07-24T10:21:29.464Z,30.34
2018-07-24T10:22:29.389Z,30.43
2018-07-24T10:23:29.328Z,30.65
2018-07-24T10:24:29.293Z,30.73
2018-07-24T10:25:29.193Z,30.83
2018-07-24T10:26:29.117Z,30.91
2018-07-24T10:27:29.052Z,31.06
2018-07-24T10:28:28.977Z,31.36
2018-07-24T10:29:28.915Z,31.46
2018-07-24T10:30:28.870Z,31.68
2018-07-24T10:31:28.777Z,31.75
2018-07-24T10:32:28.705Z,32.08
2018-07-24T10:33:28.641Z,32.11
2018-07-24T10:34:28.567Z,32.14
2018-07-24T10:35:28.504Z,32.14
2018-07-24T10:36:28.478Z,32.06
2018-07-24T10:37:28.368Z,31.95
2018-07-24T10:38:28.305Z,31.43
2018-07-24T10:39:28.230Z,31.13
2018-07-24T10:40:28.167Z,31.01
2018-07-24T10:41:28.092Z,31.09
2018-07-24T10:42:28.031Z,31.07
2018-07-24T10:43:27.969Z,31.13
2018-07-24T10:44:27.896Z,31.06
2018-07-24T10:45:27.833Z,31.04
2018-07-24T10:46:27.768Z,31.41
2018-07-24T10:47:27.694Z,31.51
2018-07-24T10:48:27.630Z,31.75
2018-07-24T10:49:27.569Z,32.04
2018-07-24T10:50:27.482Z,31.96
2018-07-24T10:51:27.417Z,31.58
2018-07-24T10:52:27.367Z,31.58
2018-07-24T10:53:27.279Z,31.72
2018-07-24T10:54:27.218Z,31.46
2018-07-24T10:55:27.170Z,31.29
2018-07-24T10:56:27.083Z,32.37
2018-07-24T10:57:27.020Z,32.67
2018-07-24T10:58:26.969Z,33.03
2018-07-24T10:59:26.879Z,33.47
2018-07-24T11:00:26.818Z,33.01
2018-07-24T11:01:26.768Z,33.22
2018-07-24T11:02:26.680Z,33.54
2018-07-24T11:03:26.618Z,34.15
2018-07-24T11:04:26.568Z,34.40
2018-07-24T11:05:26.495Z,33.94
2018-07-24T11:06:26.419Z,34.70
2018-07-24T11:07:26.359Z,34.54
2018-07-24T11:08:26.298Z,34.92
2018-07-24T11:09:26.232Z,35.29
2018-07-24T11:10:26.171Z,34.08
2018-07-24T11:11:26.095Z,32.88
2018-07-24T11:12:26.031Z,32.25
2018-07-24T11:13:25.969Z,31.76
2018-07-24T11:14:25.906Z,31.69
2018-07-24T11:15:25.848Z,31.76
2018-07-24T11:16:25.814Z,31.76
2018-07-24T11:17:25.709Z,31.31
2018-07-24T11:18:25.647Z,31.46
2018-07-24T11:19:25.582Z,31.91
2018-07-24T11:20:25.520Z,32.92
2018-07-24T11:21:25.457Z,32.92
2018-07-24T11:22:25.508Z,33.37
2018-07-24T11:23:25.323Z,33.29
2018-07-24T11:24:25.259Z,34.21
2018-07-24T11:25:25.197Z,35.07
2018-07-24T11:26:25.134Z,35.70
2018-07-24T11:27:25.093Z,35.47
2018-07-24T11:28:25.046Z,34.47
2018-07-24T11:29:24.940Z,35.00
2018-07-24T11:30:24.871Z,35.03
2018-07-24T11:31:24.809Z,34.96
2018-07-24T11:32:24.748Z,34.89
2018-07-24T11:33:24.691Z,35.14
2018-07-24T11:34:24.624Z,36.03
2018-07-24T11:35:24.566Z,36.22
2018-07-24T11:36:24.499Z,36.66
2018-07-24T11:37:24.438Z,36.87
2018-07-24T11:38:24.362Z,37.03
2018-07-24T11:39:24.308Z,37.44
2018-07-24T11:40:24.236Z,37.34
2018-07-24T11:41:24.172Z,37.00
2018-07-24T11:42:24.112Z,37.05
2018-07-24T11:43:24.051Z,37.00
2018-07-24T11:44:23.999Z,36.83
2018-07-24T11:45:23.936Z,36.64
2018-07-24T11:46:23.876Z,36.43
2018-07-24T11:47:23.822Z,36.50
2018-07-24T11:48:23.749Z,35.25
2018-07-24T11:49:23.689Z,34.09
2018-07-24T11:50:23.623Z,33.69
2018-07-24T11:51:23.562Z,33.15
2018-07-24T11:52:23.500Z,32.74
2018-07-24T11:53:23.435Z,32.13
2018-07-24T11:54:23.374Z,31.88
2018-07-24T11:55:23.314Z,31.89
2018-07-24T11:56:23.250Z,31.86
2018-07-24T11:57:23.189Z,31.68
2018-07-24T11:58:23.126Z,31.44
2018-07-24T11:59:23.061Z,31.84
2018-07-24T12:00:23.000Z,33.18
2018-07-24T12:01:22.950Z,33.53
2018-07-24T12:02:22.863Z,32.74
2018-07-24T12:03:22.854Z,33.60
2018-07-24T12:04:22.754Z,34.61
2018-07-24T12:05:22.677Z,35.28
2018-07-24T12:06:22.614Z,35.60
2018-07-24T12:07:22.553Z,36.43
2018-07-24T12:08:22.488Z,36.88
2018-07-24T12:09:22.427Z,37.13
2018-07-24T12:10:22.364Z,36.84
2018-07-24T12:11:22.289Z,36.34
2018-07-24T12:12:22.226Z,36.31
2018-07-24T12:13:22.175Z,37.05
2018-07-24T12:14:22.101Z,37.72
2018-07-24T12:15:22.040Z,37.98
2018-07-24T12:16:21.977Z,37.66
2018-07-24T12:17:21.917Z,37.28
2018-07-24T12:18:21.854Z,36.47
2018-07-24T12:19:21.788Z,36.38
2018-07-24T12:20:21.726Z,36.62
2018-07-24T12:21:21.664Z,36.99
2018-07-24T12:22:21.602Z,36.32
2018-07-24T12:23:21.538Z,36.39
2018-07-24T12:24:21.477Z,36.50
2018-07-24T12:25:21.426Z,36.53
2018-07-24T12:26:21.353Z,36.84
2018-07-24T12:27:21.291Z,37.31
2018-07-24T12:28:21.230Z,37.66
2018-07-24T12:29:21.182Z,38.03
2018-07-24T12:30:21.120Z,38.23
2018-07-24T12:31:21.054Z,37.49
2018-07-24T12:32:20.990Z,36.99
2018-07-24T12:33:20.928Z,37.02
2018-07-24T12:34:20.867Z,36.00
2018-07-24T12:35:20.807Z,36.49
2018-07-24T12:36:20.743Z,36.31
2018-07-24T12:37:20.681Z,34.97
2018-07-24T12:38:20.620Z,34.92
2018-07-24T12:39:20.556Z,34.56
2018-07-24T12:40:20.493Z,33.97
2018-07-24T12:41:20.431Z,33.72
2018-07-24T12:42:20.369Z,32.93
2018-07-24T12:43:20.316Z,32.97
2018-07-24T12:44:20.244Z,33.88
2018-07-24T12:45:20.179Z,34.28
2018-07-24T12:46:20.117Z,34.62
2018-07-24T12:47:20.061Z,34.96
2018-07-24T12:48:19.994Z,35.23
2018-07-24T12:49:19.932Z,36.01
2018-07-24T12:50:19.870Z,35.94
2018-07-24T12:51:19.805Z,35.68